Terminal Aerodrome Forecast
Issued by NWS Cleveland, OH

Home | Current Version | Previous Version | Text Only | Print | Product List | Glossary Off
Versions: 1 2 3 4 5 6 7 8 9 10 11 12 13 14 15 16 17

000
FTUS41 KCLE 150500
TAFCAK
TAF
KCAK 150520Z 1506/1606 35005KT P6SM VCSH OVC008
     FM150800 33012KT 6SM -RA BR OVC008
      TEMPO 1508/1510 4SM -RASNPL BR OVC003
     FM151000 32012KT 3SM -SN BR OVC008
      TEMPO 1510/1514 1SM -SN BR OVC003
     FM151400 30012G18KT 5SM -SHSN BR OVC015
      TEMPO 1514/1518 2SM -SHSN BR OVC008
     FM151800 30015G25KT P6SM OVC015
     FM152200 30015G25KT P6SM OVC025
     FM160200 31009KT P6SM SCT250=

USA.gov is the U.S. government's official web portal to all federal, state and local government web resources and services.